createdAt,value
2017-08-22T00:00:55.917Z,68.70
2017-08-22T00:03:28.997Z,68.90
2017-08-22T00:05:56.444Z,69.30
2017-08-22T00:08:23.965Z,70.20
2017-08-22T00:10:51.426Z,69.10
2017-08-22T00:13:18.919Z,69.30
2017-08-22T00:15:46.369Z,69.60
2017-08-22T00:18:13.843Z,69.30
2017-08-22T00:20:41.325Z,69.30
2017-08-22T00:23:08.824Z,69.20
2017-08-22T00:25:36.285Z,69.30
2017-08-22T00:28:03.758Z,69.40
2017-08-22T00:30:31.237Z,69.40
2017-08-22T00:32:58.697Z,69.40
2017-08-22T00:35:26.224Z,69.60
2017-08-22T00:37:53.691Z,70.00
2017-08-22T00:40:21.156Z,69.90
2017-08-22T00:42:48.629Z,70.00
2017-08-22T00:45:16.094Z,69.60
2017-08-22T00:47:43.573Z,69.20
2017-08-22T00:50:11.034Z,69.20
2017-08-22T00:52:38.507Z,69.10
2017-08-22T00:55:05.989Z,69.30
2017-08-22T00:57:33.450Z,69.20
2017-08-22T01:00:00.925Z,69.00
2017-08-22T01:02:28.400Z,69.00
2017-08-22T01:04:55.861Z,69.00
2017-08-22T01:07:23.339Z,69.00
2017-08-22T01:09:50.989Z,69.20
2017-08-22T01:12:18.458Z,69.40
2017-08-22T01:14:45.946Z,69.40
2017-08-22T01:17:13.417Z,69.50
2017-08-22T01:19:40.884Z,69.30
2017-08-22T01:22:08.373Z,69.40
2017-08-22T01:24:35.826Z,69.60
2017-08-22T01:27:03.338Z,70.20
2017-08-22T01:29:30.804Z,69.40
2017-08-22T01:31:58.333Z,69.60
2017-08-22T01:34:25.923Z,70.00
2017-08-22T01:36:53.458Z,70.20
2017-08-22T01:39:20.929Z,70.00
2017-08-22T01:41:48.416Z,69.80
2017-08-22T01:44:15.889Z,70.10
2017-08-22T01:46:43.348Z,70.40
2017-08-22T01:49:10.816Z,70.60
2017-08-22T01:51:38.285Z,70.80
2017-08-22T01:54:05.737Z,70.60
2017-08-22T01:56:33.205Z,70.60
2017-08-22T01:59:00.667Z,70.80
2017-08-22T02:01:28.163Z,71.20
2017-08-22T02:03:55.677Z,70.70
2017-08-22T02:06:23.137Z,70.60
2017-08-22T02:08:50.592Z,70.50
2017-08-22T02:11:18.066Z,70.40
2017-08-22T02:13:45.559Z,70.60
2017-08-22T02:16:13.021Z,70.90
2017-08-22T02:18:40.554Z,70.80
2017-08-22T02:21:08.034Z,70.80
2017-08-22T02:23:35.503Z,71.20
2017-08-22T02:26:02.962Z,71.60
2017-08-22T02:28:30.499Z,71.40
2017-08-22T02:30:58.046Z,71.80
2017-08-22T02:33:25.518Z,71.70
2017-08-22T02:35:52.988Z,71.90
2017-08-22T02:38:20.613Z,72.00
2017-08-22T02:40:48.074Z,71.70
2017-08-22T02:43:15.601Z,71.20
2017-08-22T02:45:43.065Z,70.90
2017-08-22T02:48:10.614Z,70.90
2017-08-22T02:50:38.123Z,71.20
2017-08-22T02:53:05.585Z,71.10
2017-08-22T02:55:33.058Z,70.80
2017-08-22T02:58:00.524Z,70.90
2017-08-22T03:00:28.005Z,70.90
2017-08-22T03:02:55.462Z,70.60
2017-08-22T03:05:22.967Z,70.70
2017-08-22T03:07:50.421Z,70.90
2017-08-22T03:10:17.893Z,70.70
2017-08-22T03:12:45.370Z,70.80
2017-08-22T03:15:12.835Z,70.40
2017-08-22T03:17:40.330Z,70.20
2017-08-22T03:20:07.801Z,70.20
2017-08-22T03:22:35.268Z,70.70
2017-08-22T03:25:02.721Z,71.20
2017-08-22T03:27:30.205Z,71.10
2017-08-22T03:29:57.681Z,71.30
2017-08-22T03:32:25.142Z,70.80
2017-08-22T03:34:52.748Z,71.00
2017-08-22T03:37:20.215Z,71.70
2017-08-22T03:39:47.684Z,71.40
2017-08-22T03:42:15.154Z,71.10
2017-08-22T03:44:42.750Z,70.80
2017-08-22T03:47:10.213Z,70.90
2017-08-22T03:49:37.673Z,70.90
2017-08-22T03:52:05.256Z,71.40
2017-08-22T03:54:32.854Z,70.90
2017-08-22T03:57:00.317Z,70.80
2017-08-22T03:59:27.798Z,70.50
2017-08-22T04:01:55.393Z,70.70
2017-08-22T04:04:22.904Z,70.00
2017-08-22T04:06:50.381Z,69.80
2017-08-22T04:09:17.861Z,70.10
2017-08-22T04:11:45.418Z,70.20
2017-08-22T04:14:12.898Z,70.00
2017-08-22T04:16:40.360Z,69.90
2017-08-22T04:19:07.826Z,69.70
2017-08-22T04:21:35.300Z,69.60
2017-08-22T04:24:02.756Z,69.80
2017-08-22T04:26:30.294Z,69.60
2017-08-22T04:28:57.770Z,70.70
2017-08-22T04:31:25.242Z,70.50
2017-08-22T04:33:53.169Z,70.70
2017-08-22T04:36:20.676Z,71.10
2017-08-22T04:38:48.133Z,71.20
2017-08-22T04:41:15.603Z,71.20
2017-08-22T04:43:43.128Z,71.20
2017-08-22T04:46:10.601Z,71.00
2017-08-22T04:48:38.058Z,71.20
2017-08-22T04:51:05.537Z,71.20
2017-08-22T04:53:33.037Z,71.20
2017-08-22T04:56:00.502Z,71.00
2017-08-22T04:58:28.030Z,71.20
2017-08-22T05:00:55.573Z,71.30
2017-08-22T05:03:23.030Z,71.50
2017-08-22T05:05:50.549Z,71.80
2017-08-22T05:08:18.008Z,71.80
2017-08-22T05:10:45.482Z,71.80
2017-08-22T05:13:12.954Z,71.70
2017-08-22T05:15:40.507Z,71.60
2017-08-22T05:18:07.984Z,71.60
2017-08-22T05:20:35.451Z,71.80
2017-08-22T05:23:02.980Z,71.90
2017-08-22T05:25:30.446Z,71.60
2017-08-22T05:27:57.948Z,71.70
2017-08-22T05:30:25.439Z,71.50
2017-08-22T05:32:52.896Z,71.70
2017-08-22T05:35:20.379Z,71.20
2017-08-22T05:37:47.850Z,71.50
2017-08-22T05:40:15.314Z,71.30
2017-08-22T05:42:42.793Z,71.00
2017-08-22T05:45:10.256Z,71.00
2017-08-22T05:47:37.717Z,70.90
2017-08-22T05:50:05.207Z,70.90
2017-08-22T05:52:32.674Z,70.70
2017-08-22T05:55:00.149Z,70.60
2017-08-22T05:57:27.780Z,70.80
2017-08-22T05:59:55.289Z,70.40
2017-08-22T06:02:22.768Z,70.40
2017-08-22T06:04:50.234Z,70.60
2017-08-22T06:07:17.769Z,70.60
2017-08-22T06:09:45.259Z,70.50
2017-08-22T06:12:12.743Z,70.60
2017-08-22T06:14:40.264Z,70.60
2017-08-22T06:17:07.741Z,70.60
2017-08-22T06:19:36.066Z,70.50
2017-08-22T06:22:03.547Z,70.30
2017-08-22T06:24:31.070Z,70.30
2017-08-22T06:26:58.561Z,69.00
2017-08-22T06:29:26.053Z,69.60
2017-08-22T06:31:53.510Z,68.70
2017-08-22T06:34:21.177Z,67.60
2017-08-22T06:36:48.633Z,67.50
2017-08-22T06:39:16.101Z,66.00
2017-08-22T06:41:43.689Z,66.10
2017-08-22T06:44:11.184Z,65.20
2017-08-22T06:46:38.650Z,65.30
2017-08-22T06:49:06.157Z,64.70
2017-08-22T06:51:33.629Z,64.70
2017-08-22T06:54:01.292Z,64.20
2017-08-22T06:56:28.772Z,64.30
2017-08-22T06:58:56.272Z,64.70
2017-08-22T07:01:23.750Z,64.20
2017-08-22T07:03:51.269Z,64.20
2017-08-22T07:06:18.741Z,64.00
2017-08-22T07:08:46.205Z,64.40
2017-08-22T07:11:13.687Z,64.70
2017-08-22T07:13:41.170Z,63.40
2017-08-22T07:16:08.649Z,62.80
2017-08-22T07:18:36.155Z,62.80
2017-08-22T07:21:03.664Z,62.50
2017-08-22T07:23:31.159Z,62.10
2017-08-22T07:25:58.685Z,61.40
2017-08-22T07:28:26.205Z,61.00
2017-08-22T07:30:53.686Z,61.40
2017-08-22T07:33:21.140Z,60.90
2017-08-22T07:35:48.641Z,60.60
2017-08-22T07:38:16.977Z,60.40
2017-08-22T07:40:44.445Z,60.10
2017-08-22T07:43:11.913Z,59.50
2017-08-22T07:45:39.489Z,59.50
2017-08-22T07:48:07.126Z,59.00
2017-08-22T07:50:34.588Z,59.00
2017-08-22T07:53:02.082Z,58.10
2017-08-22T07:55:29.530Z,58.80
2017-08-22T07:57:57.115Z,59.10
2017-08-22T08:00:24.574Z,59.20
2017-08-22T08:02:52.029Z,59.30
2017-08-22T08:05:19.514Z,58.30
2017-08-22T08:07:46.973Z,58.10
2017-08-22T08:10:14.462Z,58.60
2017-08-22T08:12:41.961Z,57.90
2017-08-22T08:15:09.426Z,58.10
2017-08-22T08:17:36.893Z,58.20
2017-08-22T08:20:04.380Z,56.20
2017-08-22T08:22:31.960Z,57.40
2017-08-22T08:24:59.438Z,57.10
2017-08-22T08:27:26.917Z,57.30
2017-08-22T08:29:54.388Z,57.30
2017-08-22T08:32:21.852Z,56.60
2017-08-22T08:34:49.316Z,56.40
2017-08-22T08:37:16.793Z,57.10
2017-08-22T08:39:44.253Z,56.80
2017-08-22T08:42:11.732Z,56.40
2017-08-22T08:44:39.229Z,56.30
2017-08-22T08:47:06.798Z,56.50
2017-08-22T08:49:34.262Z,56.20
2017-08-22T08:52:01.714Z,55.90
2017-08-22T08:54:29.405Z,55.20
2017-08-22T08:56:57.913Z,55.30
2017-08-22T08:59:25.395Z,55.30
2017-08-22T09:01:52.949Z,56.10
2017-08-22T09:04:20.443Z,54.90
2017-08-22T09:06:47.900Z,54.20
2017-08-22T09:09:15.368Z,52.90
2017-08-22T09:11:42.837Z,53.90
2017-08-22T09:14:10.297Z,54.40
2017-08-22T09:16:37.774Z,54.60
2017-08-22T09:19:05.345Z,54.90
2017-08-22T09:21:32.822Z,54.40
2017-08-22T09:24:00.284Z,53.60
2017-08-22T09:26:27.789Z,53.00
2017-08-22T09:28:55.245Z,54.10
2017-08-22T09:31:22.701Z,53.70
2017-08-22T09:33:50.208Z,52.60
2017-08-22T09:36:17.665Z,52.40
2017-08-22T09:38:45.165Z,53.10
2017-08-22T09:41:12.627Z,53.70
2017-08-22T09:43:40.160Z,53.80
2017-08-22T09:46:08.393Z,53.80
2017-08-22T09:48:35.877Z,54.00
2017-08-22T09:51:03.398Z,53.10
2017-08-22T09:53:30.874Z,53.70
2017-08-22T09:55:58.337Z,53.70
2017-08-22T09:58:26.592Z,52.70
2017-08-22T10:00:54.906Z,52.30
2017-08-22T10:03:22.366Z,50.70
2017-08-22T10:05:49.859Z,51.60
2017-08-22T10:08:17.329Z,52.60
2017-08-22T10:10:44.814Z,50.90
2017-08-22T10:13:12.399Z,51.40
2017-08-22T10:16:08.465Z,51.10
2017-08-22T10:18:35.928Z,49.70
2017-08-22T10:21:03.397Z,49.30
2017-08-22T10:23:30.864Z,50.80
2017-08-22T10:25:58.358Z,48.10
2017-08-22T10:28:25.837Z,47.90
2017-08-22T10:30:53.293Z,48.10
2017-08-22T10:33:20.842Z,47.50
2017-08-22T10:35:48.309Z,47.40
2017-08-22T10:38:15.786Z,46.40
2017-08-22T10:40:43.256Z,47.30
2017-08-22T10:43:10.723Z,46.90
2017-08-22T10:45:38.221Z,48.00
2017-08-22T10:48:05.678Z,48.00
2017-08-22T10:50:33.159Z,46.80
2017-08-22T10:53:00.621Z,47.70
2017-08-22T10:55:28.090Z,47.30
2017-08-22T10:57:55.561Z,47.00
2017-08-22T11:00:23.022Z,44.70
2017-08-22T11:02:50.485Z,45.00
2017-08-22T11:05:17.953Z,44.80
2017-08-22T11:07:45.602Z,45.80
2017-08-22T11:10:13.105Z,46.60
2017-08-22T11:12:40.582Z,45.40
2017-08-22T11:15:08.058Z,43.90
2017-08-22T11:17:35.526Z,42.80
2017-08-22T11:20:03.046Z,42.90
2017-08-22T11:22:30.504Z,43.90
2017-08-22T11:24:58.017Z,42.70
2017-08-22T11:27:25.490Z,45.10
2017-08-22T11:29:52.978Z,43.20
2017-08-22T11:32:20.433Z,45.90
2017-08-22T11:34:47.927Z,42.50
2017-08-22T11:37:15.403Z,41.50
2017-08-22T11:39:42.867Z,41.80
2017-08-22T11:42:10.336Z,42.60
2017-08-22T11:44:38.379Z,41.90
2017-08-22T11:49:39.832Z,41.60
2017-08-22T11:52:07.310Z,41.80
2017-08-22T11:54:34.777Z,41.50
2017-08-22T11:57:02.249Z,42.40
2017-08-22T11:59:29.858Z,42.30
2017-08-22T12:01:57.407Z,42.60
2017-08-22T12:04:24.894Z,42.80
2017-08-22T12:06:52.366Z,39.10
2017-08-22T12:09:19.836Z,39.20
2017-08-22T12:11:47.319Z,38.90
2017-08-22T12:14:14.950Z,38.90
2017-08-22T12:16:42.427Z,37.30
2017-08-22T12:19:09.910Z,36.50
2017-08-22T12:21:37.401Z,35.70
2017-08-22T12:24:04.957Z,35.60
2017-08-22T12:26:32.453Z,36.10
2017-08-22T12:28:59.944Z,36.20
2017-08-22T12:31:27.417Z,37.50
2017-08-22T12:33:54.925Z,39.20
2017-08-22T12:36:22.386Z,33.20
2017-08-22T12:38:49.889Z,32.20
2017-08-22T12:41:17.440Z,32.60
2017-08-22T12:43:44.925Z,34.90
2017-08-22T12:46:12.406Z,35.00
2017-08-22T12:48:39.882Z,33.70
2017-08-22T12:51:07.517Z,35.30
2017-08-22T12:53:35.327Z,35.30
2017-08-22T12:56:02.781Z,34.30
2017-08-22T12:58:30.289Z,37.10
2017-08-22T13:00:58.251Z,37.90
2017-08-22T13:03:25.718Z,36.00
2017-08-22T13:05:53.187Z,34.60
2017-08-22T13:08:20.668Z,35.40
2017-08-22T13:10:48.138Z,35.00
2017-08-22T13:13:16.343Z,35.50
2017-08-22T13:15:43.806Z,37.50
2017-08-22T13:18:11.289Z,35.40
2017-08-22T13:20:38.754Z,36.00
2017-08-22T13:23:06.218Z,34.30
2017-08-22T13:25:33.690Z,34.30
2017-08-22T13:28:01.162Z,34.90
2017-08-22T13:30:28.651Z,35.60
2017-08-22T13:32:56.319Z,37.50
2017-08-22T13:35:23.793Z,33.90
2017-08-22T13:37:51.258Z,35.20
2017-08-22T13:40:18.747Z,35.00
2017-08-22T13:42:46.337Z,34.90
2017-08-22T13:45:13.804Z,35.60
2017-08-22T13:47:41.275Z,36.00
2017-08-22T13:50:08.749Z,37.10
2017-08-22T13:52:36.376Z,35.40
2017-08-22T13:55:03.837Z,36.20
2017-08-22T13:57:31.302Z,34.30
2017-08-22T13:59:58.791Z,34.80
2017-08-22T14:02:26.261Z,35.90
2017-08-22T14:04:53.762Z,36.20
2017-08-22T14:07:21.222Z,36.80
2017-08-22T14:09:48.702Z,36.40
2017-08-22T14:12:16.186Z,36.20
2017-08-22T14:14:43.654Z,36.00
2017-08-22T14:17:11.405Z,34.80
2017-08-22T14:19:38.862Z,36.10
2017-08-22T14:22:07.208Z,35.10
2017-08-22T14:24:34.665Z,34.60
2017-08-22T14:27:02.267Z,35.60
2017-08-22T14:29:29.742Z,35.70
2017-08-22T14:31:57.210Z,35.10
2017-08-22T14:34:24.688Z,35.30
2017-08-22T14:36:52.308Z,35.70
2017-08-22T14:39:19.782Z,35.30
2017-08-22T14:41:47.248Z,35.00
2017-08-22T14:44:14.724Z,37.00
2017-08-22T14:46:42.209Z,35.90
2017-08-22T14:49:09.786Z,35.20
2017-08-22T14:51:37.281Z,37.50
2017-08-22T14:54:05.378Z,36.40
2017-08-22T14:56:32.855Z,37.50
2017-08-22T14:59:00.326Z,40.00
2017-08-22T15:01:27.796Z,38.80
2017-08-22T15:03:55.280Z,38.40
2017-08-22T15:06:22.747Z,39.80
2017-08-22T15:08:50.251Z,39.00
2017-08-22T15:11:17.719Z,38.90
2017-08-22T15:13:45.270Z,39.40
2017-08-22T15:16:12.746Z,39.70
2017-08-22T15:18:40.226Z,39.60
2017-08-22T15:21:07.855Z,40.10
2017-08-22T15:23:35.409Z,39.40
2017-08-22T15:26:02.895Z,39.50
2017-08-22T15:28:30.363Z,40.10
2017-08-22T15:30:57.839Z,38.50
2017-08-22T15:33:25.379Z,39.20
2017-08-22T15:35:52.843Z,40.40
2017-08-22T15:38:20.317Z,40.80
2017-08-22T15:40:47.813Z,40.70
2017-08-22T15:43:15.314Z,40.90
2017-08-22T15:45:42.773Z,41.00
2017-08-22T15:48:10.258Z,40.50
2017-08-22T15:50:37.764Z,41.40
2017-08-22T15:53:05.305Z,40.40
2017-08-22T15:55:32.782Z,41.70
2017-08-22T15:58:00.360Z,40.80
2017-08-22T16:00:27.860Z,41.20
2017-08-22T16:02:55.330Z,40.30
2017-08-22T16:05:22.807Z,41.10
2017-08-22T16:07:50.402Z,40.80
2017-08-22T16:10:17.883Z,40.70
2017-08-22T16:12:45.370Z,41.60
2017-08-22T16:15:12.834Z,40.50
2017-08-22T16:17:40.446Z,40.50
2017-08-22T16:20:08.125Z,42.30
2017-08-22T16:22:35.794Z,42.90
2017-08-22T16:25:03.266Z,42.80
2017-08-22T16:27:30.743Z,42.20
2017-08-22T16:29:58.276Z,42.10
2017-08-22T16:32:25.780Z,42.10
2017-08-22T16:34:53.293Z,42.30
2017-08-22T16:37:20.770Z,42.20
2017-08-22T16:39:48.241Z,42.10
2017-08-22T16:42:15.883Z,42.00
2017-08-22T16:44:43.353Z,42.50
2017-08-22T16:47:11.594Z,42.60
2017-08-22T16:49:39.070Z,42.50
2017-08-22T16:52:06.532Z,42.80
2017-08-22T16:54:34.045Z,43.10
2017-08-22T16:57:01.499Z,43.60
2017-08-22T16:59:29.006Z,43.20
2017-08-22T17:01:56.481Z,43.00
2017-08-22T17:04:24.377Z,44.00
2017-08-22T17:06:51.890Z,43.70
2017-08-22T17:09:19.364Z,44.00
2017-08-22T17:11:46.847Z,44.80
2017-08-22T17:14:14.342Z,44.70
2017-08-22T17:16:41.870Z,44.10
2017-08-22T17:19:09.425Z,44.60
2017-08-22T17:21:37.146Z,44.70
2017-08-22T17:24:04.646Z,45.50
2017-08-22T17:26:32.134Z,45.00
2017-08-22T17:28:59.630Z,45.50
2017-08-22T17:31:27.121Z,45.70
2017-08-22T17:33:54.603Z,45.70
2017-08-22T17:36:22.094Z,45.50
2017-08-22T17:38:49.582Z,45.80
2017-08-22T17:41:17.197Z,46.00
2017-08-22T17:43:44.672Z,45.80
2017-08-22T17:46:12.178Z,45.50
2017-08-22T17:48:39.672Z,45.80
2017-08-22T17:51:07.223Z,45.60
2017-08-22T17:53:34.754Z,45.60
2017-08-22T17:56:02.227Z,45.40
2017-08-22T17:58:29.736Z,45.30
2017-08-22T18:00:57.277Z,45.20
2017-08-22T18:03:24.873Z,45.50
2017-08-22T18:05:52.353Z,45.50
2017-08-22T18:08:19.841Z,46.10
2017-08-22T18:10:47.444Z,46.80
2017-08-22T18:13:14.922Z,47.50
2017-08-22T18:15:42.536Z,45.40
2017-08-22T18:18:10.018Z,46.80
2017-08-22T18:20:37.515Z,45.50
2017-08-22T18:23:05.004Z,46.70
2017-08-22T18:25:32.486Z,46.60
2017-08-22T18:28:00.203Z,46.90
2017-08-22T18:30:28.037Z,47.80
2017-08-22T18:32:55.553Z,48.10
2017-08-22T18:35:23.045Z,48.20
2017-08-22T18:37:50.554Z,48.00
2017-08-22T18:40:18.065Z,47.80
2017-08-22T18:42:45.541Z,47.70
2017-08-22T18:45:13.123Z,48.40
2017-08-22T18:47:40.613Z,48.30
2017-08-22T18:50:08.182Z,48.60
2017-08-22T18:52:35.666Z,47.80
2017-08-22T18:55:03.161Z,47.90
2017-08-22T18:57:30.657Z,48.60
2017-08-22T18:59:58.361Z,49.20
2017-08-22T19:02:25.863Z,49.00
2017-08-22T19:04:53.349Z,49.20
2017-08-22T19:07:20.806Z,49.10
2017-08-22T19:09:48.357Z,49.10
2017-08-22T19:12:15.849Z,49.20
2017-08-22T19:14:43.506Z,49.10
2017-08-22T19:17:11.001Z,49.50
2017-08-22T21:18:35.929Z,56.60
2017-08-22T21:21:03.438Z,56.80
2017-08-22T21:23:30.955Z,56.80
2017-08-22T21:25:58.440Z,57.00
2017-08-22T21:28:25.913Z,57.00
2017-08-22T21:30:53.401Z,57.00
2017-08-22T21:33:21.106Z,57.00
2017-08-22T21:35:48.571Z,57.30
2017-08-22T21:38:16.046Z,57.40
2017-08-22T21:40:43.577Z,57.40
2017-08-22T21:43:11.065Z,57.50
2017-08-22T21:45:38.565Z,57.60
2017-08-22T21:48:06.041Z,57.80
2017-08-22T21:50:33.634Z,58.00
2017-08-22T21:53:01.092Z,58.10
2017-08-22T21:55:28.569Z,58.20
2017-08-22T21:57:56.048Z,58.10
2017-08-22T22:00:23.706Z,58.30
2017-08-22T22:02:51.186Z,58.90
2017-08-22T22:05:19.428Z,58.10
2017-08-22T22:07:46.969Z,58.10
2017-08-22T22:10:14.431Z,58.10
2017-08-22T22:12:41.990Z,58.10
2017-08-22T22:15:09.462Z,58.10
2017-08-22T22:17:36.949Z,58.30
2017-08-22T22:20:04.414Z,58.40
2017-08-22T22:22:32.041Z,58.50
2017-08-22T22:24:59.517Z,58.50
2017-08-22T22:27:26.994Z,58.70
2017-08-22T22:29:54.469Z,58.70
2017-08-22T22:32:21.968Z,58.60
2017-08-22T22:34:49.446Z,58.70
2017-08-22T22:37:16.914Z,58.80
2017-08-22T22:39:44.435Z,58.80
2017-08-22T22:42:11.888Z,58.40
2017-08-22T22:44:39.474Z,58.50
2017-08-22T22:47:07.713Z,58.50
2017-08-22T22:49:35.178Z,58.50
2017-08-22T22:52:02.657Z,58.60
2017-08-22T22:54:30.132Z,58.90
2017-08-22T22:56:57.655Z,58.80
2017-08-22T22:59:25.122Z,59.10
2017-08-22T23:01:52.592Z,58.90
2017-08-22T23:04:20.068Z,59.60
2017-08-22T23:06:47.546Z,59.10
2017-08-22T23:09:15.008Z,59.30
2017-08-22T23:11:42.485Z,59.20
2017-08-22T23:14:09.937Z,59.20
2017-08-22T23:16:38.146Z,59.30
2017-08-22T23:19:05.609Z,59.40
2017-08-22T23:21:33.091Z,59.50
2017-08-22T23:24:00.580Z,59.70
2017-08-22T23:26:28.041Z,59.90
2017-08-22T23:28:55.526Z,60.80
2017-08-22T23:31:22.990Z,60.60
2017-08-22T23:33:50.454Z,60.70
2017-08-22T23:36:18.046Z,61.10
2017-08-22T23:38:45.509Z,60.70
2017-08-22T23:41:12.982Z,60.90
2017-08-22T23:43:40.460Z,61.40
2017-08-22T23:46:07.949Z,61.30
2017-08-22T23:48:35.420Z,61.20
2017-08-22T23:51:02.938Z,62.00
2017-08-22T23:53:30.409Z,62.00
2017-08-22T23:55:57.879Z,62.00
2017-08-22T23:58:25.351Z,62.10
